Time;durP1;ratioP1;P1;durP2;ratioP2;P2;SDS_P1;SDS_P2;PMS_P1;PMS_P2;Temp;Humidity;BMP_temperature;BMP_pressure;BME280_temperature;BME280_humidity;BME280_pressure;Samples;Min_cycle;Max_cycle;Signal;HPM_P1;HPM_P2
2022/01/04 00:01:33;;;;;;;6.38;2.70;;;;;;;;;;5091225;28;20569;-71
2022/01/04 00:03:59;;;;;;;6.97;2.78;;;;;;;;;;5091039;28;20079;-70
2022/01/04 00:06:25;;;;;;;10.43;3.17;;;;;;;;;;5090492;28;20083;-70
2022/01/04 00:08:55;;;;;;;8.20;2.95;;;;;;;;;;5091132;28;20086;-70
2022/01/04 00:11:32;;;;;;;9.20;3.30;;;;;;;;;;5091286;28;20054;-70
2022/01/04 00:13:58;;;;;;;8.88;2.72;;;;;;;;;;5090288;28;20071;-72
2022/01/04 00:16:24;;;;;;;8.75;3.22;;;;;;;;;;5089207;28;20062;-72
2022/01/04 00:18:50;;;;;;;8.18;3.00;;;;;;;;;;5090496;28;20081;-73
2022/01/04 00:21:16;;;;;;;12.23;2.85;;;;;;;;;;5090828;28;20055;-71
2022/01/04 00:23:43;;;;;;;9.23;3.03;;;;;;;;;;5089444;28;20050;-71
2022/01/04 00:26:09;;;;;;;5.65;2.58;;;;;;;;;;5090355;28;20123;-71
2022/01/04 00:28:35;;;;;;;5.75;2.38;;;;;;;;;;5090934;28;20098;-71
2022/01/04 00:31:01;;;;;;;5.18;2.03;;;;;;;;;;5090259;28;20040;-71
2022/01/04 00:33:27;;;;;;;9.40;2.88;;;;;;;;;;5091000;28;20444;-71
2022/01/04 00:35:53;;;;;;;5.68;2.22;;;;;;;;;;5090165;28;20481;-71
2022/01/04 00:38:19;;;;;;;6.70;2.42;;;;;;;;;;5090440;28;20075;-71
2022/01/04 00:40:45;;;;;;;8.27;2.90;;;;;;;;;;5089853;28;20254;-72
2022/01/04 00:43:12;;;;;;;7.70;2.58;;;;;;;;;;5090194;28;20084;-72
2022/01/04 00:45:38;;;;;;;8.40;2.92;;;;;;;;;;5090503;28;20044;-71
2022/01/04 00:50:33;;;;;;;10.57;2.65;;;;;;;;;;5090295;28;20044;-72
2022/01/04 00:52:59;;;;;;;11.98;2.70;;;;;;;;;;5088739;28;20455;-71
2022/01/04 00:55:26;;;;;;;8.95;2.75;;;;;;;;;;5089794;28;20414;-72
2022/01/04 00:57:52;;;;;;;8.65;2.33;;;;;;;;;;5089958;28;20074;-72
2022/01/04 01:00:19;;;;;;;7.47;2.85;;;;;;;;;;5089945;28;20395;-72
2022/01/04 01:02:45;;;;;;;7.85;2.38;;;;;;;;;;5088600;28;20043;-72
2022/01/04 01:05:12;;;;;;;6.75;2.20;;;;;;;;;;5090230;28;20047;-72
2022/01/04 01:07:38;;;;;;;9.80;2.40;;;;;;;;;;5089862;28;20537;-72
2022/01/04 01:12:52;;;;;;;6.07;1.98;;;;;;;;;;5089554;28;20562;-72
2022/01/04 01:15:18;;;;;;;5.50;2.42;;;;;;;;;;5089956;28;20040;-72
2022/01/04 01:17:44;;;;;;;5.68;2.58;;;;;;;;;;5089208;28;20480;-72
2022/01/04 01:20:13;;;;;;;7.25;2.35;;;;;;;;;;5089822;28;20079;-71
2022/01/04 01:22:39;;;;;;;6.15;2.50;;;;;;;;;;5089698;28;20126;-72
2022/01/04 01:25:06;;;;;;;5.15;2.08;;;;;;;;;;5089244;28;20044;-72
2022/01/04 01:27:32;;;;;;;6.50;2.20;;;;;;;;;;5089573;28;20486;-72
2022/01/04 01:29:58;;;;;;;7.78;2.60;;;;;;;;;;5089672;28;20472;-72
2022/01/04 01:32:24;;;;;;;11.98;3.33;;;;;;;;;;5089255;28;20543;-72
2022/01/04 01:34:50;;;;;;;7.22;2.40;;;;;;;;;;5089612;28;20062;-72
2022/01/04 01:37:16;;;;;;;5.85;2.10;;;;;;;;;;5089647;28;20128;-72
2022/01/04 01:39:42;;;;;;;6.45;2.47;;;;;;;;;;5089400;28;20080;-72
2022/01/04 01:42:08;;;;;;;6.50;2.22;;;;;;;;;;5089839;28;20158;-72
2022/01/04 01:44:35;;;;;;;7.07;2.00;;;;;;;;;;5089623;28;20040;-71
2022/01/04 01:47:01;;;;;;;7.25;2.45;;;;;;;;;;5089193;28;20044;-72
2022/01/04 01:49:27;;;;;;;4.60;2.10;;;;;;;;;;5089484;28;20460;-72
2022/01/04 01:51:54;;;;;;;6.25;2.05;;;;;;;;;;5089004;28;20117;-72
2022/01/04 01:54:20;;;;;;;6.15;2.42;;;;;;;;;;5089511;28;20094;-72
2022/01/04 01:56:46;;;;;;;5.80;2.00;;;;;;;;;;5087989;28;20093;-72
2022/01/04 01:59:15;;;;;;;6.07;1.92;;;;;;;;;;5089440;28;20036;-72
2022/01/04 02:01:41;;;;;;;6.07;2.35;;;;;;;;;;5087987;28;20044;-72
2022/01/04 02:04:07;;;;;;;5.47;2.00;;;;;;;;;;5089318;28;20126;-72
2022/01/04 02:06:33;;;;;;;5.25;1.85;;;;;;;;;;5089231;28;20072;-72
2022/01/04 02:09:00;;;;;;;6.15;2.50;;;;;;;;;;5088596;28;20055;-72
2022/01/04 02:11:28;;;;;;;5.60;2.20;;;;;;;;;;5088896;28;20509;-73
2022/01/04 02:13:55;;;;;;;8.27;2.40;;;;;;;;;;5088661;28;20091;-73
2022/01/04 02:16:21;;;;;;;6.70;2.08;;;;;;;;;;5089216;28;20055;-71
2022/01/04 02:18:47;;;;;;;8.10;2.22;;;;;;;;;;5087610;28;20304;-71
2022/01/04 02:21:13;;;;;;;6.07;2.30;;;;;;;;;;5089158;28;20051;-71
2022/01/04 02:23:39;;;;;;;5.47;2.08;;;;;;;;;;5089100;28;20043;-72
2022/01/04 02:26:05;;;;;;;10.25;2.25;;;;;;;;;;5088665;28;20048;-71
2022/01/04 02:28:32;;;;;;;10.80;2.58;;;;;;;;;;5087440;28;20137;-73
2022/01/04 02:30:58;;;;;;;7.30;1.95;;;;;;;;;;5088853;28;20521;-72
2022/01/04 02:33:24;;;;;;;7.47;2.00;;;;;;;;;;5089141;28;20044;-72
2022/01/04 02:35:50;;;;;;;7.28;2.50;;;;;;;;;;5087612;28;20498;-72
2022/01/04 02:38:16;;;;;;;6.43;2.20;;;;;;;;;;5088313;28;20044;-72
2022/01/04 02:40:42;;;;;;;9.32;2.13;;;;;;;;;;5092100;28;20046;-71
2022/01/04 02:43:08;;;;;;;6.68;1.90;;;;;;;;;;5091969;28;20048;-71
2022/01/04 02:45:34;;;;;;;8.82;3.05;;;;;;;;;;5091864;28;20429;-71
2022/01/04 02:48:00;;;;;;;7.50;1.75;;;;;;;;;;5090906;28;20052;-71
2022/01/04 02:50:27;;;;;;;7.90;1.83;;;;;;;;;;5091578;28;20059;-71
2022/01/04 02:52:53;;;;;;;7.05;2.10;;;;;;;;;;5091662;28;20048;-71
2022/01/04 02:55:19;;;;;;;6.97;2.30;;;;;;;;;;5091859;28;20076;-71
2022/01/04 02:57:45;;;;;;;6.32;2.00;;;;;;;;;;5090270;28;20051;-72
2022/01/04 03:00:13;;;;;;;5.10;1.80;;;;;;;;;;5091289;28;20102;-72
2022/01/04 03:02:39;;;;;;;6.57;2.08;;;;;;;;;;5091797;28;20039;-72
2022/01/04 03:05:06;;;;;;;5.20;1.75;;;;;;;;;;5090470;28;20075;-72
2022/01/04 03:07:33;;;;;;;5.88;1.60;;;;;;;;;;5091821;28;20453;-72
2022/01/04 03:09:59;;;;;;;5.28;2.30;;;;;;;;;;5091761;28;20056;-72
2022/01/04 03:12:25;;;;;;;5.90;1.80;;;;;;;;;;5091020;28;20067;-72
2022/01/04 03:14:51;;;;;;;5.90;2.00;;;;;;;;;;5091283;28;20060;-71
2022/01/04 03:17:17;;;;;;;4.20;1.80;;;;;;;;;;5091704;28;20093;-71
2022/01/04 03:19:43;;;;;;;5.00;1.88;;;;;;;;;;5091666;28;20499;-72
2022/01/04 03:22:09;;;;;;;4.68;1.65;;;;;;;;;;5092203;28;20402;-72
2022/01/04 03:24:35;;;;;;;5.40;2.03;;;;;;;;;;5091087;28;20048;-73
2022/01/04 03:27:01;;;;;;;5.32;1.60;;;;;;;;;;5091076;28;20091;-73
2022/01/04 03:29:27;;;;;;;4.93;1.80;;;;;;;;;;5090260;28;20471;-73
2022/01/04 03:31:55;;;;;;;4.32;1.75;;;;;;;;;;5089738;28;20135;-73
2022/01/04 03:34:21;;;;;;;6.70;2.05;;;;;;;;;;5091014;28;20494;-72
2022/01/04 03:36:47;;;;;;;6.07;1.80;;;;;;;;;;5090580;28;20046;-72
2022/01/04 03:39:13;;;;;;;6.35;1.55;;;;;;;;;;5089642;28;20078;-72
2022/01/04 03:41:40;;;;;;;4.20;1.60;;;;;;;;;;5090772;28;20139;-72
2022/01/04 03:44:07;;;;;;;4.60;1.50;;;;;;;;;;5090773;28;20636;-72
2022/01/04 03:46:33;;;;;;;5.07;1.70;;;;;;;;;;5089821;28;20052;-72
2022/01/04 03:49:00;;;;;;;6.93;2.30;;;;;;;;;;5088080;28;20664;-72
2022/01/04 03:51:26;;;;;;;4.45;1.67;;;;;;;;;;5090444;28;20046;-72
2022/01/04 03:53:52;;;;;;;4.55;1.45;;;;;;;;;;5090984;28;20048;-72
2022/01/04 03:56:18;;;;;;;5.25;1.80;;;;;;;;;;5090611;28;20486;-73
2022/01/04 03:58:44;;;;;;;4.35;1.98;;;;;;;;;;5089406;28;20444;-72
2022/01/04 04:01:10;;;;;;;5.95;2.13;;;;;;;;;;5090499;28;20154;-72
2022/01/04 04:03:36;;;;;;;4.60;1.60;;;;;;;;;;5090207;28;20414;-72
2022/01/04 04:06:02;;;;;;;5.80;2.00;;;;;;;;;;5088724;28;20048;-72
2022/01/04 04:08:29;;;;;;;3.45;1.30;;;;;;;;;;5090610;28;20497;-72
2022/01/04 04:10:55;;;;;;;4.97;1.80;;;;;;;;;;5090562;28;20039;-72
2022/01/04 04:13:21;;;;;;;3.92;1.33;;;;;;;;;;5090088;28;20104;-72
2022/01/04 04:15:47;;;;;;;6.13;1.60;;;;;;;;;;5089691;28;20052;-72
2022/01/04 04:18:13;;;;;;;3.15;1.40;;;;;;;;;;5090399;28;20146;-72
2022/01/04 04:20:40;;;;;;;4.63;1.33;;;;;;;;;;5088827;28;20209;-72
2022/01/04 04:23:07;;;;;;;3.80;1.40;;;;;;;;;;5089913;28;20044;-72
2022/01/04 04:25:33;;;;;;;5.45;1.63;;;;;;;;;;5090427;28;20093;-72
2022/01/04 04:27:59;;;;;;;4.22;1.45;;;;;;;;;;5089754;28;20501;-73
2022/01/04 04:30:26;;;;;;;3.47;1.40;;;;;;;;;;5088600;28;20056;-73
2022/01/04 04:32:52;;;;;;;5.32;1.50;;;;;;;;;;5089212;28;20083;-73
2022/01/04 04:35:18;;;;;;;4.95;1.63;;;;;;;;;;5090737;28;20043;-73
2022/01/04 04:37:44;;;;;;;4.72;1.45;;;;;;;;;;5089880;28;20174;-73
2022/01/04 04:40:10;;;;;;;2.92;1.17;;;;;;;;;;5089362;28;20048;-73
2022/01/04 04:42:36;;;;;;;4.22;1.20;;;;;;;;;;5089291;28;20046;-73
2022/01/04 04:45:03;;;;;;;3.45;1.38;;;;;;;;;;5090293;28;20044;-73
2022/01/04 04:47:29;;;;;;;5.72;1.70;;;;;;;;;;5090181;28;20040;-73
2022/01/04 04:49:55;;;;;;;5.78;1.40;;;;;;;;;;5089701;28;20051;-73
2022/01/04 04:52:22;;;;;;;3.83;1.13;;;;;;;;;;5090312;28;20044;-74
2022/01/04 04:54:48;;;;;;;7.07;1.90;;;;;;;;;;5088943;28;20047;-71
2022/01/04 04:57:15;;;;;;;5.43;1.67;;;;;;;;;;5090110;28;20036;-71
2022/01/04 04:59:41;;;;;;;8.27;1.70;;;;;;;;;;5090309;28;20123;-71
2022/01/04 05:02:07;;;;;;;6.90;1.70;;;;;;;;;;5089676;28;20044;-71
2022/01/04 05:04:34;;;;;;;3.22;1.33;;;;;;;;;;5088661;28;20490;-70
2022/01/04 05:07:00;;;;;;;3.67;1.20;;;;;;;;;;5089633;28;20058;-71
2022/01/04 05:09:26;;;;;;;7.65;1.50;;;;;;;;;;5090239;28;20051;-71
2022/01/04 05:11:52;;;;;;;7.32;1.33;;;;;;;;;;5089640;28;20066;-71
2022/01/04 05:14:18;;;;;;;8.52;1.77;;;;;;;;;;5089609;28;20056;-69
2022/01/04 05:16:44;;;;;;;6.00;1.48;;;;;;;;;;5089800;28;20040;-69
2022/01/04 05:19:11;;;;;;;4.35;1.50;;;;;;;;;;5089750;28;20125;-71
2022/01/04 05:21:37;;;;;;;4.90;1.15;;;;;;;;;;5088637;28;20056;-71
2022/01/04 05:24:03;;;;;;;5.20;1.50;;;;;;;;;;5088254;28;20067;-71
2022/01/04 05:26:29;;;;;;;5.20;1.20;;;;;;;;;;5089446;28;20048;-71
2022/01/04 05:28:55;;;;;;;7.18;1.80;;;;;;;;;;5089935;28;20047;-71
2022/01/04 05:31:21;;;;;;;3.92;1.33;;;;;;;;;;5089564;28;20055;-71
2022/01/04 05:33:47;;;;;;;10.30;1.40;;;;;;;;;;5089708;28;20048;-71
2022/01/04 05:36:13;;;;;;;3.03;1.40;;;;;;;;;;5089201;28;20126;-71
2022/01/04 05:38:40;;;;;;;3.58;1.30;;;;;;;;;;5089482;28;20051;-71
2022/01/04 05:41:06;;;;;;;4.97;1.42;;;;;;;;;;5089141;28;20087;-72
2022/01/04 05:43:32;;;;;;;4.68;1.20;;;;;;;;;;5089736;28;20048;-71
2022/01/04 05:45:58;;;;;;;5.30;1.33;;;;;;;;;;5089612;28;20044;-71
2022/01/04 05:48:24;;;;;;;3.90;1.15;;;;;;;;;;5089588;28;20394;-71
2022/01/04 05:50:50;;;;;;;4.90;1.60;;;;;;;;;;5089067;28;20044;-71
2022/01/04 05:53:17;;;;;;;3.15;1.33;;;;;;;;;;5088319;28;20406;-71
2022/01/04 05:55:43;;;;;;;6.18;1.55;;;;;;;;;;5089205;28;20036;-71
2022/01/04 05:58:09;;;;;;;6.68;1.20;;;;;;;;;;5089120;28;20408;-71
2022/01/04 06:00:35;;;;;;;3.65;1.58;;;;;;;;;;5089020;28;20559;-71
2022/01/04 06:03:01;;;;;;;3.53;1.17;;;;;;;;;;5089275;28;20044;-71
2022/01/04 06:05:30;;;;;;;3.17;1.08;;;;;;;;;;5089235;28;20586;-71
2022/01/04 06:07:56;;;;;;;5.55;1.40;;;;;;;;;;5087874;28;20118;-72
2022/01/04 06:10:22;;;;;;;3.80;1.20;;;;;;;;;;5088861;28;20036;-72
2022/01/04 06:15:15;;;;;;;4.38;1.10;;;;;;;;;;5093571;28;20044;-71
2022/01/04 06:17:50;;;;;;;3.42;1.33;;;;;;;;;;5093345;28;20106;-71
2022/01/04 06:20:17;;;;;;;3.13;1.15;;;;;;;;;;5093493;28;20060;-71
2022/01/04 06:22:43;;;;;;;2.17;1.10;;;;;;;;;;5093168;28;20094;-72
2022/01/04 06:25:11;;;;;;;2.88;1.02;;;;;;;;;;5093107;28;20079;-71
2022/01/04 06:27:37;;;;;;;3.45;1.58;;;;;;;;;;5093196;28;20040;-71
2022/01/04 06:30:03;;;;;;;4.05;1.35;;;;;;;;;;5092785;28;20046;-71
2022/01/04 06:32:29;;;;;;;3.15;1.15;;;;;;;;;;5093031;28;20043;-71
2022/01/04 06:34:56;;;;;;;3.22;1.20;;;;;;;;;;5092357;28;20044;-71
2022/01/04 06:37:22;;;;;;;2.67;1.10;;;;;;;;;;5092909;28;20459;-71
2022/01/04 06:39:48;;;;;;;4.32;1.30;;;;;;;;;;5092890;28;20189;-70
2022/01/04 06:42:14;;;;;;;3.25;1.10;;;;;;;;;;5092757;28;20520;-70
2022/01/04 06:44:43;;;;;;;4.65;1.50;;;;;;;;;;5092406;28;20130;-70
2022/01/04 06:47:09;;;;;;;3.72;1.50;;;;;;;;;;5092745;28;20494;-71
2022/01/04 06:49:35;;;;;;;2.20;1.15;;;;;;;;;;5092683;28;20044;-70
2022/01/04 06:52:01;;;;;;;2.97;1.15;;;;;;;;;;5092775;28;20451;-70
2022/01/04 06:54:27;;;;;;;3.05;1.20;;;;;;;;;;5092166;28;20044;-71
2022/01/04 06:56:53;;;;;;;2.90;1.13;;;;;;;;;;5092404;28;20078;-71
2022/01/04 06:59:19;;;;;;;4.45;1.05;;;;;;;;;;5092405;28;20134;-69
2022/01/04 07:01:46;;;;;;;3.95;1.00;;;;;;;;;;5092158;28;20051;-71
2022/01/04 07:04:12;;;;;;;3.45;1.02;;;;;;;;;;5092279;28;20051;-71
2022/01/04 07:06:38;;;;;;;2.63;1.13;;;;;;;;;;5092252;28;20040;-71
2022/01/04 07:09:05;;;;;;;3.92;1.45;;;;;;;;;;5091781;28;20486;-71
2022/01/04 07:11:32;;;;;;;2.72;1.00;;;;;;;;;;5092255;28;20052;-71
2022/01/04 07:13:58;;;;;;;3.13;1.00;;;;;;;;;;5091398;28;20048;-71
2022/01/04 07:16:24;;;;;;;2.53;1.00;;;;;;;;;;5090778;28;20110;-71
2022/01/04 07:18:50;;;;;;;3.08;1.40;;;;;;;;;;5087819;28;20133;-71
2022/01/04 07:21:17;;;;;;;3.50;1.23;;;;;;;;;;5091769;28;20051;-72
2022/01/04 07:23:43;;;;;;;4.03;1.30;;;;;;;;;;5091776;28;20478;-73
2022/01/04 07:26:14;;;;;;;6.30;1.38;;;;;;;;;;5092202;28;20044;-70
2022/01/04 07:28:48;;;;;;;3.80;1.20;;;;;;;;;;5091418;28;20093;-70
2022/01/04 07:31:14;;;;;;;8.35;1.27;;;;;;;;;;5092222;28;20383;-70
2022/01/04 07:33:41;;;;;;;2.50;0.93;;;;;;;;;;5091675;28;20417;-71
2022/01/04 07:36:07;;;;;;;16.30;1.90;;;;;;;;;;5092053;28;20062;-71
2022/01/04 07:38:34;;;;;;;5.05;1.08;;;;;;;;;;5092019;28;20127;-71
2022/01/04 07:41:00;;;;;;;8.07;1.58;;;;;;;;;;5091383;28;20044;-71
2022/01/04 07:43:26;;;;;;;2.83;0.98;;;;;;;;;;5091439;28;20048;-71
2022/01/04 07:45:53;;;;;;;2.90;1.10;;;;;;;;;;5091753;28;20498;-71
2022/01/04 07:48:19;;;;;;;3.85;1.58;;;;;;;;;;5091683;28;20047;-71
2022/01/04 07:50:45;;;;;;;2.92;1.08;;;;;;;;;;5091369;28;20490;-71
2022/01/04 07:53:11;;;;;;;5.82;1.30;;;;;;;;;;5091527;28;20139;-71
2022/01/04 07:55:37;;;;;;;4.30;1.45;;;;;;;;;;5091355;28;20127;-71
2022/01/04 07:58:04;;;;;;;2.67;1.15;;;;;;;;;;5091610;28;20055;-71
2022/01/04 08:00:30;;;;;;;3.20;1.15;;;;;;;;;;5091494;28;20062;-71
2022/01/04 08:02:56;;;;;;;2.55;1.02;;;;;;;;;;5090819;28;20498;-71
2022/01/04 08:05:23;;;;;;;2.58;0.90;;;;;;;;;;5091404;28;20592;-71
2022/01/04 08:07:50;;;;;;;3.63;1.00;;;;;;;;;;5091202;28;20448;-71
2022/01/04 08:10:17;;;;;;;4.18;1.33;;;;;;;;;;5091636;28;20105;-71
2022/01/04 08:12:43;;;;;;;3.33;1.10;;;;;;;;;;5091152;28;20056;-71
2022/01/04 08:15:10;;;;;;;7.47;1.58;;;;;;;;;;5090778;28;20101;-71
2022/01/04 08:17:37;;;;;;;6.22;1.27;;;;;;;;;;5091220;28;20044;-72
2022/01/04 08:20:04;;;;;;;5.28;1.17;;;;;;;;;;5091094;28;20058;-72
2022/01/04 08:22:32;;;;;;;6.43;1.08;;;;;;;;;;5089601;28;20051;-72
2022/01/04 08:25:02;;;;;;;4.03;1.45;;;;;;;;;;5090261;28;20043;-73
2022/01/04 08:27:28;;;;;;;5.82;1.20;;;;;;;;;;5089941;28;20489;-72
2022/01/04 08:29:54;;;;;;;8.43;1.92;;;;;;;;;;5089393;28;20488;-73
2022/01/04 08:32:21;;;;;;;4.22;1.10;;;;;;;;;;5089237;28;20040;-73
2022/01/04 08:34:47;;;;;;;3.72;1.05;;;;;;;;;;5089685;28;20040;-73
2022/01/04 08:37:13;;;;;;;5.38;1.15;;;;;;;;;;5089699;28;20054;-74
2022/01/04 08:39:39;;;;;;;4.57;1.10;;;;;;;;;;5089072;28;20052;-72
2022/01/04 08:42:05;;;;;;;4.22;1.20;;;;;;;;;;5090671;28;20040;-73
2022/01/04 08:44:33;;;;;;;4.90;1.13;;;;;;;;;;5090469;28;20051;-74
2022/01/04 08:46:59;;;;;;;4.22;1.23;;;;;;;;;;5090262;28;20052;-75
2022/01/04 08:49:25;;;;;;;7.45;1.55;;;;;;;;;;5089537;28;20048;-74
2022/01/04 08:51:51;;;;;;;3.85;1.17;;;;;;;;;;5088577;28;20072;-75
2022/01/04 08:54:18;;;;;;;4.85;1.25;;;;;;;;;;5088151;28;20497;-74
2022/01/04 08:56:44;;;;;;;3.88;1.10;;;;;;;;;;5077820;28;20201;-76
2022/01/04 08:59:10;;;;;;;3.53;1.05;;;;;;;;;;5088617;28;20040;-75
2022/01/04 09:01:37;;;;;;;7.25;1.67;;;;;;;;;;5089365;28;20090;-75
2022/01/04 09:04:06;;;;;;;2.88;0.90;;;;;;;;;;5088244;28;20044;-77
2022/01/04 09:06:32;;;;;;;4.65;1.00;;;;;;;;;;5087894;28;20052;-77
2022/01/04 09:08:58;;;;;;;4.78;1.27;;;;;;;;;;5088804;28;20044;-76
2022/01/04 09:11:24;;;;;;;4.22;1.05;;;;;;;;;;5088550;28;20532;-75
2022/01/04 09:13:54;;;;;;;5.28;1.27;;;;;;;;;;5086424;28;20056;-75
2022/01/04 09:19:05;;;;;;;4.10;1.42;;;;;;;;;;5089035;28;20052;-73
2022/01/04 09:21:31;;;;;;;2.92;0.90;;;;;;;;;;5088160;28;20055;-75
2022/01/04 09:23:59;;;;;;;6.07;1.42;;;;;;;;;;5088907;28;20464;-73
2022/01/04 09:26:26;;;;;;;3.47;1.23;;;;;;;;;;5089399;28;20523;-73
2022/01/04 09:28:52;;;;;;;5.43;1.55;;;;;;;;;;5088119;28;20075;-74
2022/01/04 09:31:21;;;;;;;4.82;1.40;;;;;;;;;;5089388;28;20447;-75
2022/01/04 09:33:47;;;;;;;5.50;1.27;;;;;;;;;;5085737;28;20063;-75
2022/01/04 09:36:13;;;;;;;4.88;1.70;;;;;;;;;;5085383;28;20131;-76
2022/01/04 09:38:39;;;;;;;5.80;2.10;;;;;;;;;;5087109;28;20127;-75
2022/01/04 09:41:06;;;;;;;6.78;2.38;;;;;;;;;;5087815;28;20044;-76
2022/01/04 09:43:32;;;;;;;7.28;2.60;;;;;;;;;;5087547;28;20105;-77
2022/01/04 09:45:58;;;;;;;7.60;2.75;;;;;;;;;;5088130;28;20368;-76
2022/01/04 09:48:24;;;;;;;9.65;3.97;;;;;;;;;;5088058;28;20051;-76
2022/01/04 09:50:50;;;;;;;12.32;5.00;;;;;;;;;;5087922;28;20044;-76
2022/01/04 09:53:19;;;;;;;8.68;4.53;;;;;;;;;;5088609;28;20123;-74
2022/01/04 09:55:47;;;;;;;9.40;4.95;;;;;;;;;;5087859;28;20059;-74
2022/01/04 09:58:13;;;;;;;10.10;4.97;;;;;;;;;;5087597;28;20040;-74
2022/01/04 10:00:40;;;;;;;9.95;5.15;;;;;;;;;;5089246;28;20571;-76
2022/01/04 10:03:17;;;;;;;11.25;5.22;;;;;;;;;;5089389;28;20048;-76
2022/01/04 10:05:43;;;;;;;10.48;5.60;;;;;;;;;;5089672;28;20044;-75
2022/01/04 10:08:10;;;;;;;11.52;5.82;;;;;;;;;;5087749;28;20131;-75
2022/01/04 10:10:38;;;;;;;9.90;5.60;;;;;;;;;;5088600;28;20078;-75
2022/01/04 10:13:06;;;;;;;9.75;5.55;;;;;;;;;;5088256;28;20059;-76
2022/01/04 10:15:33;;;;;;;14.18;6.47;;;;;;;;;;5087676;28;20071;-76
2022/01/04 10:18:18;;;;;;;11.10;6.05;;;;;;;;;;5088919;28;20784;-76
2022/01/04 10:20:48;;;;;;;11.82;6.43;;;;;;;;;;5072372;28;20087;-75
2022/01/04 10:23:16;;;;;;;12.50;6.15;;;;;;;;;;5087692;28;20665;-76
2022/01/04 10:25:42;;;;;;;11.73;6.15;;;;;;;;;;5086990;28;20060;-75
2022/01/04 10:28:08;;;;;;;12.82;5.90;;;;;;;;;;5087704;28;20048;-75
2022/01/04 10:30:35;;;;;;;10.60;5.32;;;;;;;;;;5086314;28;20161;-75
2022/01/04 10:33:04;;;;;;;11.65;6.55;;;;;;;;;;5088054;28;20044;-75
2022/01/04 10:35:32;;;;;;;12.25;5.80;;;;;;;;;;5087250;28;20048;-76
2022/01/04 10:38:18;;;;;;;10.30;6.15;;;;;;;;;;5087680;28;20090;-75
2022/01/04 10:40:45;;;;;;;12.90;6.30;;;;;;;;;;5086624;28;20383;-75
2022/01/04 10:43:13;;;;;;;10.77;5.97;;;;;;;;;;5087526;28;20085;-74
2022/01/04 10:45:41;;;;;;;10.90;6.15;;;;;;;;;;5087413;28;20418;-75
2022/01/04 10:48:11;;;;;;;12.63;6.68;;;;;;;;;;5088541;28;20040;-75
2022/01/04 10:50:38;;;;;;;10.38;6.07;;;;;;;;;;5088385;28;20407;-75
2022/01/04 10:53:05;;;;;;;10.15;6.13;;;;;;;;;;5088447;28;20044;-75
2022/01/04 10:55:32;;;;;;;12.15;6.03;;;;;;;;;;5088925;28;20399;-75
2022/01/04 10:57:58;;;;;;;11.00;6.05;;;;;;;;;;5086535;28;20392;-75
2022/01/04 11:00:24;;;;;;;10.30;5.35;;;;;;;;;;5088998;28;20184;-75
2022/01/04 11:02:50;;;;;;;12.13;5.57;;;;;;;;;;5092414;28;20606;-76
2022/01/04 11:05:18;;;;;;;11.07;5.32;;;;;;;;;;5073864;28;20047;-75
2022/01/04 11:07:57;;;;;;;9.40;5.55;;;;;;;;;;5092611;28;20040;-75
2022/01/04 11:10:23;;;;;;;11.23;5.85;;;;;;;;;;5090323;28;20055;-75
2022/01/04 11:12:49;;;;;;;8.63;4.30;;;;;;;;;;5092049;28;20203;-74
2022/01/04 11:15:15;;;;;;;11.38;4.97;;;;;;;;;;5092396;28;20113;-72
2022/01/04 11:17:41;;;;;;;11.13;5.75;;;;;;;;;;5092064;28;20051;-73
2022/01/04 11:20:08;;;;;;;12.52;5.28;;;;;;;;;;5090768;28;20390;-73
2022/01/04 11:22:35;;;;;;;11.18;5.20;;;;;;;;;;5090351;28;20044;-73
2022/01/04 11:25:03;;;;;;;9.40;4.78;;;;;;;;;;5091562;28;20412;-72
2022/01/04 11:27:31;;;;;;;9.63;4.55;;;;;;;;;;5092124;28;20088;-73
2022/01/04 11:29:59;;;;;;;11.40;4.88;;;;;;;;;;5092169;28;20056;-72
2022/01/04 11:32:26;;;;;;;9.65;4.80;;;;;;;;;;5091095;28;20072;-71
2022/01/04 11:34:52;;;;;;;9.10;4.43;;;;;;;;;;5091812;28;20047;-75
2022/01/04 11:37:19;;;;;;;9.98;4.72;;;;;;;;;;5090673;28;20078;-74
2022/01/04 11:39:45;;;;;;;8.85;4.43;;;;;;;;;;5091361;28;20475;-74
2022/01/04 11:42:13;;;;;;;10.27;5.03;;;;;;;;;;5091590;28;20059;-74
2022/01/04 11:44:44;;;;;;;8.80;4.32;;;;;;;;;;5091943;28;20608;-72
2022/01/04 11:47:18;;;;;;;7.85;4.40;;;;;;;;;;5091167;28;20072;-72
2022/01/04 11:50:05;;;;;;;10.32;4.72;;;;;;;;;;5089689;28;20109;-72
2022/01/04 11:52:42;;;;;;;8.35;4.28;;;;;;;;;;5090415;28;20079;-72
2022/01/04 11:55:21;;;;;;;7.65;4.10;;;;;;;;;;5089483;28;20040;-72
2022/01/04 11:57:47;;;;;;;9.15;4.72;;;;;;;;;;5091320;28;20421;-72
2022/01/04 12:00:26;;;;;;;7.80;4.15;;;;;;;;;;5090794;28;20060;-72
2022/01/04 12:03:05;;;;;;;7.95;4.05;;;;;;;;;;5091366;28;20055;-73
2022/01/04 12:05:31;;;;;;;6.97;3.97;;;;;;;;;;5089822;28;20051;-73
2022/01/04 12:08:03;;;;;;;9.05;4.75;;;;;;;;;;5091568;28;20502;-72
2022/01/04 12:10:30;;;;;;;8.38;4.18;;;;;;;;;;5090023;28;20048;-72
2022/01/04 12:12:56;;;;;;;7.38;4.10;;;;;;;;;;5090117;28;20087;-72
2022/01/04 12:15:34;;;;;;;6.88;3.70;;;;;;;;;;5089288;28;20387;-73
2022/01/04 12:18:00;;;;;;;7.82;4.07;;;;;;;;;;5089072;28;20097;-73
2022/01/04 12:20:42;;;;;;;8.25;4.05;;;;;;;;;;5089768;28;20624;-71
2022/01/04 12:23:26;;;;;;;6.78;3.78;;;;;;;;;;5089113;28;20048;-72
2022/01/04 12:28:31;;;;;;;7.47;3.80;;;;;;;;;;5089855;28;20418;-73
2022/01/04 12:31:19;;;;;;;6.97;3.33;;;;;;;;;;5090507;28;20525;-71
2022/01/04 12:33:45;;;;;;;6.78;3.70;;;;;;;;;;5090112;28;20055;-70
2022/01/04 12:36:12;;;;;;;7.25;3.65;;;;;;;;;;5090258;28;20592;-72
2022/01/04 12:38:38;;;;;;;6.38;3.53;;;;;;;;;;5072177;28;20560;-71
2022/01/04 12:41:04;;;;;;;5.03;2.88;;;;;;;;;;5090570;28;20490;-71
2022/01/04 12:43:32;;;;;;;6.28;3.30;;;;;;;;;;5089793;28;20050;-71
2022/01/04 12:46:00;;;;;;;8.38;3.25;;;;;;;;;;5090995;28;20040;-71
2022/01/04 12:48:46;;;;;;;7.83;3.67;;;;;;;;;;5089652;28;20080;-71
2022/01/04 12:51:31;;;;;;;6.65;3.22;;;;;;;;;;5091158;28;20698;-71
2022/01/04 12:53:58;;;;;;;5.85;3.10;;;;;;;;;;5090843;28;20051;-71
2022/01/04 12:56:25;;;;;;;5.88;3.55;;;;;;;;;;5090946;28;20505;-71
2022/01/04 12:58:51;;;;;;;7.20;3.58;;;;;;;;;;5090140;28;20044;-71
2022/01/04 13:01:23;;;;;;;7.00;3.08;;;;;;;;;;5090758;28;20494;-74
2022/01/04 13:03:50;;;;;;;7.68;3.42;;;;;;;;;;5090924;28;20051;-73
2022/01/04 13:06:16;;;;;;;7.55;3.10;;;;;;;;;;5090665;28;20059;-71
2022/01/04 13:08:50;;;;;;;6.68;3.05;;;;;;;;;;5090173;28;20051;-73
2022/01/04 13:11:16;;;;;;;5.93;2.78;;;;;;;;;;5088994;28;20058;-73
2022/01/04 13:13:42;;;;;;;4.82;2.60;;;;;;;;;;5089121;28;20060;-73
2022/01/04 13:16:22;;;;;;;7.00;3.30;;;;;;;;;;5090564;28;20044;-72
2022/01/04 13:18:48;;;;;;;;;;;;;;;;;;5090669;28;20040;-71
2022/01/04 13:21:14;;;;;;;5.57;2.55;;;;;;;;;;5089200;28;19974;-72
2022/01/04 13:23:41;;;;;;;6.30;3.17;;;;;;;;;;5090488;28;20230;-72
2022/01/04 13:26:11;;;;;;;5.53;2.83;;;;;;;;;;5090402;28;20044;-71
2022/01/04 13:28:38;;;;;;;5.97;2.90;;;;;;;;;;5090026;28;20039;-70
2022/01/04 13:31:04;;;;;;;6.68;3.22;;;;;;;;;;5088513;28;20048;-70
2022/01/04 13:33:32;;;;;;;5.97;2.72;;;;;;;;;;5089742;28;20701;-70
2022/01/04 13:35:59;;;;;;;11.40;2.90;;;;;;;;;;5088690;28;20046;-71
2022/01/04 13:38:26;;;;;;;10.02;3.33;;;;;;;;;;5088561;28;20036;-73
2022/01/04 13:40:55;;;;;;;7.65;3.08;;;;;;;;;;5089114;28;20123;-73
2022/01/04 13:43:36;;;;;;;6.57;2.88;;;;;;;;;;5084571;28;20118;-72
2022/01/04 13:46:09;;;;;;;6.40;2.42;;;;;;;;;;5087002;28;20036;-72
2022/01/04 13:48:37;;;;;;;6.50;2.58;;;;;;;;;;5068787;28;20524;-73
2022/01/04 13:51:25;;;;;;;5.22;2.42;;;;;;;;;;5068878;28;20067;-72
2022/01/04 13:53:59;;;;;;;6.45;2.53;;;;;;;;;;5067453;28;20056;-72
2022/01/04 13:56:29;;;;;;;4.13;2.20;;;;;;;;;;5084837;28;20110;-72
2022/01/04 13:58:58;;;;;;;3.67;1.85;;;;;;;;;;5067960;28;20135;-72
2022/01/04 14:01:33;;;;;;;4.68;2.30;;;;;;;;;;5100065;28;20379;-72
2022/01/04 14:04:15;;;;;;;5.68;2.35;;;;;;;;;;5088609;28;20127;-74
2022/01/04 14:06:42;;;;;;;4.55;2.17;;;;;;;;;;5087721;28;20048;-73
2022/01/04 14:09:10;;;;;;;6.05;2.20;;;;;;;;;;5088840;28;20066;-72
2022/01/04 14:11:40;;;;;;;4.30;1.88;;;;;;;;;;5088516;28;20040;-75
2022/01/04 14:14:08;;;;;;;4.97;2.17;;;;;;;;;;5088275;28;20544;-76
2022/01/04 14:16:43;;;;;;;4.93;2.30;;;;;;;;;;5089262;28;20076;-76
2022/01/04 14:19:14;;;;;;;4.97;2.63;;;;;;;;;;5088225;28;20127;-73
2022/01/04 14:21:42;;;;;;;3.92;1.92;;;;;;;;;;5088464;28;20040;-73
2022/01/04 14:24:27;;;;;;;5.85;1.98;;;;;;;;;;5087841;28;20506;-73
2022/01/04 14:26:53;;;;;;;4.90;1.67;;;;;;;;;;5088088;28;20052;-72
2022/01/04 14:29:38;;;;;;;4.18;1.83;;;;;;;;;;5087259;28;20048;-74
2022/01/04 14:32:05;;;;;;;4.70;1.92;;;;;;;;;;5086955;28;20105;-72
2022/01/04 14:34:31;;;;;;;4.97;1.90;;;;;;;;;;5089909;28;20044;-72
2022/01/04 14:37:00;;;;;;;6.13;2.15;;;;;;;;;;5091978;28;20126;-72
2022/01/04 14:39:28;;;;;;;3.03;1.70;;;;;;;;;;5091706;28;20119;-72
2022/01/04 14:41:55;;;;;;;4.00;1.67;;;;;;;;;;5090164;28;20052;-73
2022/01/04 14:44:21;;;;;;;5.63;1.73;;;;;;;;;;5080668;28;20189;-73
2022/01/04 14:46:47;;;;;;;3.05;1.60;;;;;;;;;;5090433;28;20052;-72
2022/01/04 14:49:13;;;;;;;3.75;1.52;;;;;;;;;;5090064;28;20047;-73
2022/01/04 14:51:39;;;;;;;4.43;1.80;;;;;;;;;;5090434;28;20044;-74
2022/01/04 14:54:05;;;;;;;4.03;1.67;;;;;;;;;;5088375;28;20106;-73
2022/01/04 14:56:31;;;;;;;2.42;1.27;;;;;;;;;;5090233;28;20127;-73